Time;durP1;ratioP1;P1;durP2;ratioP2;P2;SDS_P1;SDS_P2;PMS_P1;PMS_P2;Temp;Humidity;BMP_temperature;BMP_pressure;BME280_temperature;BME280_humidity;BME280_pressure;Samples;Min_cycle;Max_cycle;Signal;HPM_P1;HPM_P2
2021/01/26 00:01:05;;;;;;;24.83;13.30;;;;;;;-0.32;82.62;100162.92;119667;1157;65150;-84
2021/01/26 00:03:31;;;;;;;24.80;14.10;;;;;;;-0.32;82.29;100149.89;120003;1157;65072;-85
2021/01/26 00:05:58;;;;;;;19.15;10.85;;;;;;;-0.30;82.62;100147.99;119862;1157;63788;-84
2021/01/26 00:08:24;;;;;;;32.67;16.27;;;;;;;-0.29;82.56;100152.27;119567;1157;65261;-85
2021/01/26 00:10:51;;;;;;;21.17;13.13;;;;;;;-0.29;81.57;100147.88;119660;1157;65073;-85
2021/01/26 00:13:19;;;;;;;23.80;13.00;;;;;;;-0.25;81.69;100153.70;119062;1157;65229;-84
2021/01/26 00:15:47;;;;;;;26.33;14.73;;;;;;;-0.25;83.06;100151.91;119451;1157;65085;-84
2021/01/26 00:18:13;;;;;;;21.60;14.20;;;;;;;-0.26;82.92;100150.23;119563;1157;65156;-85
2021/01/26 00:20:40;;;;;;;24.50;9.50;;;;;;;-0.26;83.46;100146.81;119448;1157;65108;-85
2021/01/26 00:23:06;;;;;;;28.90;17.00;;;;;;;-0.23;83.35;100146.59;119332;1157;65354;-85
2021/01/26 00:25:36;;;;;;;20.90;11.87;;;;;;;-0.20;82.65;100148.95;118741;1157;65143;-85
2021/01/26 00:28:05;;;;;;;35.10;15.70;;;;;;;-0.19;82.84;100136.73;118731;1156;65146;-86
2021/01/26 00:30:33;;;;;;;19.47;9.93;;;;;;;-0.19;83.01;100145.41;119071;1157;66285;-87
2021/01/26 00:33:03;;;;;;;21.30;9.80;;;;;;;-0.16;83.36;100152.98;119468;1157;65070;-87
2021/01/26 00:35:30;;;;;;;28.17;16.00;;;;;;;-0.12;83.68;100154.40;119699;1157;65069;-85
2021/01/26 00:37:59;;;;;;;25.15;14.40;;;;;;;-0.09;83.37;100148.93;119823;1157;65209;-85
2021/01/26 00:40:27;;;;;;;23.70;13.23;;;;;;;-0.05;82.68;100158.17;119669;1157;65114;-85
2021/01/26 00:42:53;;;;;;;18.33;10.40;;;;;;;-0.03;82.81;100158.88;119534;1156;65114;-85
2021/01/26 00:45:22;;;;;;;17.00;9.33;;;;;;;-0.02;83.71;100155.34;119492;1157;65153;-86
2021/01/26 00:47:49;;;;;;;27.30;15.27;;;;;;;-0.03;83.18;100156.28;119645;1157;65108;-85
2021/01/26 00:50:18;;;;;;;28.93;17.57;;;;;;;-0.01;83.24;100153.56;119917;1156;65079;-85
2021/01/26 00:52:44;;;;;;;35.65;14.15;;;;;;;-0.01;83.93;100153.56;119920;1157;65158;-85
2021/01/26 00:55:11;;;;;;;23.23;13.80;;;;;;;-0.02;83.21;100152.73;119545;1157;65113;-84
2021/01/26 00:57:39;;;;;;;18.30;10.10;;;;;;;-0.02;83.12;100147.52;119281;1156;65159;-82
2021/01/26 01:00:11;;;;;;;22.13;14.37;;;;;;;-0.02;83.84;100144.09;119259;1157;65106;-85
2021/01/26 01:02:38;;;;;;;26.27;15.33;;;;;;;-0.01;83.48;100143.95;118984;1157;65271;-84
2021/01/26 01:05:06;;;;;;;28.27;16.53;;;;;;;0.00;83.90;100147.41;119463;1156;65207;-84
2021/01/26 01:07:34;;;;;;;20.37;11.87;;;;;;;0.01;83.12;100143.84;119908;1157;65073;-84
2021/01/26 01:10:00;;;;;;;11.57;6.67;;;;;;;0.01;84.06;100140.41;119841;1156;65697;-84
2021/01/26 01:12:26;;;;;;;21.82;12.98;;;;;;;-0.01;83.60;100140.52;119303;1157;65236;-84
2021/01/26 01:14:53;;;;;;;20.40;12.23;;;;;;;-0.02;83.03;100142.31;119866;1157;65120;-85
2021/01/26 01:17:20;;;;;;;24.95;13.20;;;;;;;0.00;83.04;100131.77;119834;1157;65108;-85
2021/01/26 01:19:46;;;;;;;13.33;7.03;;;;;;;-0.01;83.24;100130.91;119980;1157;65206;-85
2021/01/26 01:22:13;;;;;;;19.93;11.47;;;;;;;-0.01;83.51;100130.91;119784;1157;66285;-85
2021/01/26 01:24:39;;;;;;;20.90;12.90;;;;;;;-0.01;83.44;100119.66;119312;1157;65063;-85
2021/01/26 01:27:05;;;;;;;21.90;12.60;;;;;;;-0.03;82.51;100126.77;118828;1156;65229;-86
2021/01/26 01:29:32;;;;;;;26.43;14.33;;;;;;;-0.05;83.20;100121.67;118857;1156;65127;-85
2021/01/26 01:31:59;;;;;;;18.23;9.83;;;;;;;-0.06;82.50;100132.24;118805;1157;65524;-85
2021/01/26 01:34:26;;;;;;;22.50;13.10;;;;;;;-0.10;83.43;100118.61;119485;1157;65115;-85
2021/01/26 01:36:53;;;;;;;15.35;8.25;;;;;;;-0.12;83.01;100114.47;118753;1156;65140;-86
2021/01/26 01:39:19;;;;;;;23.40;11.43;;;;;;;-0.16;83.09;100116.48;119641;1157;65162;-84
2021/01/26 01:41:45;;;;;;;20.40;11.47;;;;;;;-0.14;83.48;100118.97;120000;1155;65258;-84
2021/01/26 01:44:12;;;;;;;19.43;11.13;;;;;;;-0.12;82.59;100119.69;119814;1156;65207;-86
2021/01/26 01:46:47;;;;;;;28.02;15.68;;;;;;;-0.10;82.70;100115.18;119827;1157;65059;-85
2021/01/26 01:49:21;;;;;;;17.43;10.73;;;;;;;-0.09;83.51;100112.43;119710;1157;65306;-87
2021/01/26 01:51:47;;;;;;;21.43;14.10;;;;;;;-0.07;82.87;100112.31;119961;1155;65074;-85
2021/01/26 01:54:22;;;;;;;19.37;11.87;;;;;;;-0.07;83.62;100110.53;118782;1157;65150;-86
2021/01/26 01:57:04;;;;;;;;;;;;;;;-0.04;83.38;100105.09;118921;1156;65146;-86
2021/01/26 01:59:39;;;;;;;19.87;11.43;;;;;;;-0.03;83.29;100114.56;118955;1156;65145;-86
2021/01/26 02:02:05;;;;;;;;;;;;;;;-0.02;82.89;100112.80;118888;1156;65267;-87
2021/01/26 02:04:35;;;;;;;15.33;10.33;;;;;;;-0.02;83.62;100111.02;119167;1157;65213;-84
2021/01/26 02:07:01;;;;;;;13.57;8.60;;;;;;;-0.02;83.40;100105.80;119983;1156;65159;-85
2021/01/26 02:09:36;;;;;;;17.25;10.40;;;;;;;-0.03;83.15;100098.09;119689;1156;65235;-85
2021/01/26 02:12:03;;;;;;;;;;;;;;;-0.03;83.74;100106.73;119199;1156;66230;-85
2021/01/26 02:14:32;;;;;;;17.97;10.47;;;;;;;-0.04;83.49;100105.09;119140;1157;65280;-84
2021/01/26 02:17:14;;;;;;;11.70;7.90;;;;;;;-0.04;84.04;100101.67;119575;1157;65169;-85
2021/01/26 02:20:02;;;;;;;19.60;10.37;;;;;;;-0.06;83.79;100101.78;119089;1157;65465;-84
2021/01/26 02:22:53;;;;;;;17.30;10.33;;;;;;;-0.06;83.87;100106.17;118954;1157;65372;-86
2021/01/26 02:25:31;;;;;;;26.85;14.90;;;;;;;-0.05;84.86;100110.42;118764;1157;65142;-87
2021/01/26 02:28:45;;;;;;;21.53;11.23;;;;;;;-0.04;84.32;100110.31;119120;1157;65461;-87
2021/01/26 02:31:12;;;;;;;21.07;12.23;;;;;;;-0.02;85.08;100108.41;119424;1157;65321;-86
2021/01/26 02:33:58;;;;;;;20.73;11.93;;;;;;;0.01;83.93;100114.33;119483;1157;65143;-86
2021/01/26 02:36:24;;;;;;;13.03;8.63;;;;;;;0.01;84.19;100109.94;119184;1157;65149;-85
2021/01/26 02:39:31;;;;;;;21.30;11.37;;;;;;;-0.01;84.89;100110.05;119371;1157;65217;-84
2021/01/26 02:42:10;;;;;;;18.57;10.53;;;;;;;-0.03;85.50;100106.73;119483;1157;65148;-84
2021/01/26 02:45:02;;;;;;;21.07;11.67;;;;;;;-0.07;85.74;100105.32;120090;1156;65358;-86
2021/01/26 02:47:58;;;;;;;16.80;7.40;;;;;;;-0.10;86.53;100104.75;119435;1157;65152;-87
2021/01/26 02:50:32;;;;;;;11.47;5.67;;;;;;;-0.17;86.87;100103.56;119269;1157;65127;-87
2021/01/26 02:53:06;;;;;;;9.65;5.70;;;;;;;-0.23;86.84;100099.67;119972;1157;65208;-88
2021/01/26 02:55:41;;;;;;;17.00;7.90;;;;;;;-0.27;87.67;100103.47;119884;1157;65086;-86
2021/01/26 02:58:35;;;;;;;15.85;8.78;;;;;;;-0.29;88.12;100094.94;119341;1156;65178;-86
2021/01/26 03:01:04;;;;;;;21.83;12.23;;;;;;;-0.28;87.71;100097.41;119644;1156;65153;-86
2021/01/26 03:03:37;;;;;;;10.10;5.57;;;;;;;-0.29;87.91;100100.97;119491;1156;65113;-87
2021/01/26 03:06:15;;;;;;;9.30;5.35;;;;;;;-0.26;87.95;100105.11;119977;1157;65254;-86
2021/01/26 03:08:51;;;;;;;15.23;9.30;;;;;;;-0.27;88.18;100103.47;120081;1157;65157;-86
2021/01/26 03:11:38;;;;;;;15.33;8.87;;;;;;;-0.25;87.76;100097.18;120306;1157;64126;-86
2021/01/26 03:14:24;;;;;;;8.70;5.50;;;;;;;-0.25;87.53;100097.18;120130;1157;65035;-85
2021/01/26 03:16:58;;;;;;;20.80;12.03;;;;;;;-0.21;87.45;100102.98;119972;1156;66303;-86
2021/01/26 03:19:30;;;;;;;21.77;10.77;;;;;;;-0.18;87.17;100092.31;120044;1157;65187;-85
2021/01/26 03:22:00;;;;;;;18.43;10.17;;;;;;;-0.15;87.59;100094.69;119941;1157;65143;-86
2021/01/26 03:24:35;;;;;;;17.20;8.50;;;;;;;-0.13;87.34;100099.77;119935;1156;65088;-85
2021/01/26 03:27:08;;;;;;;21.27;10.90;;;;;;;-0.12;87.58;100107.47;119874;1156;65153;-87
2021/01/26 03:29:40;;;;;;;13.50;8.57;;;;;;;-0.13;87.37;100095.38;120015;1156;65525;-86
2021/01/26 03:32:11;;;;;;;17.37;10.93;;;;;;;-0.12;86.68;100104.05;119316;1156;64359;-84
2021/01/26 03:34:38;;;;;;;11.37;6.13;;;;;;;-0.12;86.71;100097.05;119184;1157;65164;-87
2021/01/26 03:37:05;;;;;;;12.53;6.77;;;;;;;-0.10;86.83;100099.54;119299;1156;65117;-85
2021/01/26 03:39:33;;;;;;;21.30;12.43;;;;;;;-0.08;86.82;100097.64;119262;1157;65187;-87
2021/01/26 03:42:00;;;;;;;23.30;12.95;;;;;;;-0.06;87.27;100090.53;119228;1157;65143;-85
2021/01/26 03:44:28;;;;;;;16.63;9.40;;;;;;;-0.06;86.50;100095.74;119610;1157;65103;-86
2021/01/26 03:47:09;;;;;;;13.45;8.70;;;;;;;-0.08;86.39;100088.03;119502;1157;65140;-84
2021/01/26 03:49:44;;;;;;;15.60;8.97;;;;;;;-0.10;87.37;100086.50;119242;1156;65063;-84
2021/01/26 03:52:39;;;;;;;17.90;11.63;;;;;;;-0.11;87.13;100088.26;119384;1156;65171;-86
2021/01/26 03:55:24;;;;;;;10.90;6.03;;;;;;;-0.10;88.02;100084.72;119423;1157;65191;-86
2021/01/26 03:58:33;;;;;;;5.70;3.93;;;;;;;-0.13;87.58;100089.34;119141;1156;65175;-84
2021/01/26 04:01:43;;;;;;;9.80;4.40;;;;;;;-0.16;87.39;100085.20;119267;1156;65140;-85
2021/01/26 04:04:12;;;;;;;6.75;3.80;;;;;;;-0.23;88.42;100078.82;119593;1160;65132;-86
2021/01/26 04:06:50;;;;;;;2.57;1.50;;;;;;;-0.28;89.39;100086.16;119649;1159;65210;-86
2021/01/26 04:09:22;;;;;;;12.20;6.37;;;;;;;-0.29;88.47;100084.52;119940;1157;65220;-86
2021/01/26 04:11:54;;;;;;;16.23;8.20;;;;;;;-0.31;89.51;100082.02;120088;1157;63959;-85
2021/01/26 04:14:31;;;;;;;11.67;7.67;;;;;;;-0.31;89.38;100086.41;119767;1157;65063;-85
2021/01/26 04:17:07;;;;;;;5.85;3.10;;;;;;;-0.31;89.79;100075.98;119201;1156;65161;-86
2021/01/26 04:19:40;;;;;;;5.53;3.20;;;;;;;-0.32;89.28;100074.31;119160;1157;65210;-87
2021/01/26 04:22:08;;;;;;;5.13;3.07;;;;;;;-0.36;88.91;100072.89;119212;1157;65102;-85
2021/01/26 04:24:36;;;;;;;6.20;3.50;;;;;;;-0.38;89.22;100080.00;119277;1157;65034;-86
2021/01/26 04:27:14;;;;;;;11.13;5.77;;;;;;;-0.39;90.05;100079.17;118847;1157;66197;-85
2021/01/26 04:29:40;;;;;;;9.30;4.83;;;;;;;-0.40;89.08;100082.75;119402;1155;65248;-87
2021/01/26 04:32:07;;;;;;;16.02;9.63;;;;;;;-0.39;88.75;100093.99;119893;1156;65017;-86
2021/01/26 04:34:34;;;;;;;19.63;11.20;;;;;;;-0.39;88.64;100092.20;119604;1157;65234;-85
2021/01/26 04:37:00;;;;;;;17.30;9.35;;;;;;;-0.38;89.04;100087.81;119757;1156;65149;-85
2021/01/26 04:39:26;;;;;;;8.95;4.72;;;;;;;-0.39;89.64;100096.59;120191;1155;65140;-85
2021/01/26 04:42:19;;;;;;;8.40;4.53;;;;;;;-0.42;89.66;100095.89;120206;1156;63881;-86
2021/01/26 04:45:02;;;;;;;19.03;11.10;;;;;;;-0.41;89.34;100087.11;118889;1157;65124;-86
2021/01/26 04:47:38;;;;;;;18.70;8.73;;;;;;;-0.39;90.29;100097.42;120114;1157;65114;-87
2021/01/26 04:50:29;;;;;;;10.47;6.03;;;;;;;-0.37;90.52;100099.91;119925;1157;63834;-86
2021/01/26 04:53:34;;;;;;;13.43;8.37;;;;;;;-0.36;89.31;100106.77;119909;1156;65043;-84
2021/01/26 04:56:29;;;;;;;11.93;6.77;;;;;;;-0.36;89.54;100104.16;118989;1156;65198;-85
2021/01/26 04:59:42;;;;;;;7.83;4.47;;;;;;;-0.39;89.43;100110.45;119188;1156;65191;-85
2021/01/26 05:02:17;;;;;;;8.40;5.00;;;;;;;-0.41;89.47;100107.95;120481;1156;65105;-84
2021/01/26 05:04:48;;;;;;;15.77;7.60;;;;;;;-0.37;89.96;100115.55;120133;1156;65081;-89
2021/01/26 05:07:32;;;;;;;22.13;11.27;;;;;;;-0.37;90.26;100115.55;119167;1157;65172;-84
2021/01/26 05:10:02;;;;;;;21.97;12.43;;;;;;;-0.35;89.27;100122.30;119023;1157;65204;-84
2021/01/26 05:12:34;;;;;;;17.90;10.20;;;;;;;-0.31;90.17;100123.72;119252;1157;65200;-85
2021/01/26 05:15:04;;;;;;;15.90;9.63;;;;;;;-0.28;89.97;100125.25;119081;1156;65097;-85
2021/01/26 05:17:43;;;;;;;10.73;6.43;;;;;;;-0.25;89.97;100123.24;119141;1157;65051;-85
2021/01/26 05:20:13;;;;;;;19.20;10.60;;;;;;;-0.24;89.13;100127.49;119374;1157;65200;-87
2021/01/26 05:22:50;;;;;;;15.43;8.10;;;;;;;-0.20;89.15;100130.70;119901;1155;65159;-86
2021/01/26 05:25:20;;;;;;;17.90;10.37;;;;;;;-0.17;90.11;100130.48;118968;1157;65075;-85
2021/01/26 05:27:48;;;;;;;20.93;11.27;;;;;;;-0.14;88.92;100139.83;118903;1157;65175;-85
2021/01/26 05:30:38;;;;;;;16.40;10.53;;;;;;;-0.12;88.81;100141.36;118994;1156;65060;-85
2021/01/26 05:33:12;;;;;;;16.03;9.87;;;;;;;-0.11;89.04;100137.80;119073;1156;65113;-84
2021/01/26 05:35:44;;;;;;;18.25;10.70;;;;;;;-0.08;89.26;100150.61;119199;1157;65095;-85
2021/01/26 05:38:10;;;;;;;15.80;8.90;;;;;;;-0.09;89.77;100148.11;118801;1157;65085;-84
2021/01/26 05:40:41;;;;;;;13.70;8.73;;;;;;;-0.11;88.75;100148.22;119186;1157;65481;-83
2021/01/26 05:43:18;;;;;;;9.73;5.23;;;;;;;-0.08;89.46;100155.82;119166;1156;65060;-84
2021/01/26 05:45:50;;;;;;;11.43;6.57;;;;;;;-0.09;89.32;100154.14;120005;1156;65044;-85
2021/01/26 05:48:19;;;;;;;18.47;11.23;;;;;;;-0.08;89.33;100158.42;120138;1157;65033;-84
2021/01/26 05:50:48;;;;;;;21.40;12.37;;;;;;;-0.06;89.20;100164.35;119504;1157;65082;-85
2021/01/26 05:53:25;;;;;;;19.60;10.80;;;;;;;-0.07;88.92;100167.89;119422;1157;66246;-83
2021/01/26 05:56:07;;;;;;;18.67;9.93;;;;;;;-0.04;88.26;100167.67;119238;1156;65049;-84
2021/01/26 05:58:35;;;;;;;14.90;8.80;;;;;;;0.00;88.87;100176.09;119831;1156;65126;-84
2021/01/26 06:01:09;;;;;;;14.45;8.55;;;;;;;0.02;88.29;100165.52;120279;1157;65168;-83
2021/01/26 06:03:35;;;;;;;13.28;8.90;;;;;;;0.06;88.47;100172.98;119897;1157;65248;-84
2021/01/26 06:06:13;;;;;;;19.93;10.93;;;;;;;0.11;89.06;100180.47;120182;1157;63121;-85
2021/01/26 06:08:51;;;;;;;20.20;10.20;;;;;;;0.16;88.05;100183.53;120261;1156;65203;-87
2021/01/26 06:11:24;;;;;;;20.03;10.80;;;;;;;0.18;88.18;100189.45;119119;1156;65204;-87
2021/01/26 06:13:50;;;;;;;17.50;10.97;;;;;;;0.18;87.59;100194.67;119750;1157;65025;-86
2021/01/26 06:16:22;;;;;;;15.60;10.07;;;;;;;0.18;87.87;100198.11;120269;1156;65159;-85
2021/01/26 06:19:01;;;;;;;16.63;9.03;;;;;;;0.14;87.46;100198.47;119759;1157;65115;-84
2021/01/26 06:21:45;;;;;;;21.25;10.20;;;;;;;0.15;88.59;100189.68;119832;1156;65047;-85
2021/01/26 06:24:20;;;;;;;15.17;9.13;;;;;;;0.12;87.67;100200.37;119207;1157;66456;-84
2021/01/26 06:27:07;;;;;;;19.07;10.77;;;;;;;0.14;87.66;100204.51;118736;1157;65155;-75
2021/01/26 06:29:49;;;;;;;19.30;11.10;;;;;;;0.17;87.90;100213.86;118541;1156;65140;-77
2021/01/26 06:32:57;;;;;;;17.37;10.33;;;;;;;0.19;87.57;100214.58;118469;1156;66201;-77
2021/01/26 06:35:34;;;;;;;14.00;8.93;;;;;;;0.24;88.37;100215.06;118230;1155;65107;-77
2021/01/26 06:38:29;;;;;;;16.57;10.07;;;;;;;0.23;88.28;100213.39;118342;1155;65839;-77
2021/01/26 06:41:15;;;;;;;17.57;9.77;;;;;;;0.25;88.46;100223.72;118578;1157;65551;-77
2021/01/26 06:44:10;;;;;;;16.67;10.03;;;;;;;0.23;87.51;100223.83;118369;1157;65295;-76
2021/01/26 06:46:45;;;;;;;21.00;11.53;;;;;;;0.20;88.14;100231.91;118415;1156;65139;-77
2021/01/26 06:49:34;;;;;;;27.47;11.97;;;;;;;0.19;88.06;100240.66;118527;1157;65550;-77
2021/01/26 06:52:28;;;;;;;21.35;11.95;;;;;;;0.15;87.50;100244.45;118422;1155;65255;-77
2021/01/26 06:55:25;;;;;;;17.90;10.73;;;;;;;0.13;87.56;100251.59;118389;1155;66310;-78
2021/01/26 06:58:14;;;;;;;13.90;9.00;;;;;;;0.10;87.67;100262.25;118449;1155;65209;-77
2021/01/26 07:01:10;;;;;;;15.87;8.80;;;;;;;0.06;87.83;100263.43;118442;1155;65139;-77
2021/01/26 07:04:07;;;;;;;12.73;7.73;;;;;;;0.07;88.15;100275.54;118499;1157;65201;-77
2021/01/26 07:06:47;;;;;;;23.47;12.63;;;;;;;0.08;88.69;100285.00;118469;1155;65152;-77
2021/01/26 07:09:27;;;;;;;21.85;11.45;;;;;;;0.11;88.48;100295.22;118455;1157;65251;-78
2021/01/26 07:12:31;;;;;;;26.23;14.03;;;;;;;0.10;88.52;100290.94;118493;1155;65171;-78
2021/01/26 07:15:19;;;;;;;27.23;13.50;;;;;;;0.10;88.07;100309.20;118528;1155;65145;-78
2021/01/26 07:18:31;;;;;;;19.57;12.33;;;;;;;0.09;88.74;100315.37;118875;1157;65155;-78
2021/01/26 07:21:29;;;;;;;16.27;10.13;;;;;;;0.07;88.40;100325.09;118482;1155;65170;-77
2021/01/26 07:24:21;;;;;;;11.87;7.30;;;;;;;0.06;88.59;100332.06;118440;1155;65229;-78
2021/01/26 07:27:03;;;;;;;19.33;10.60;;;;;;;0.04;88.61;100330.52;118496;1155;65201;-78
2021/01/26 07:30:06;;;;;;;26.63;11.93;;;;;;;0.07;88.53;100336.34;118455;1155;65140;-78
2021/01/26 07:32:43;;;;;;;26.10;11.53;;;;;;;0.07;88.74;100338.13;118474;1156;66323;-77
2021/01/26 07:35:31;;;;;;;24.60;13.00;;;;;;;0.08;88.85;100345.81;118521;1157;65168;-78
2021/01/26 07:38:04;;;;;;;27.25;13.85;;;;;;;0.10;89.79;100351.74;118445;1155;65140;-80
2021/01/26 07:40:43;;;;;;;22.10;13.07;;;;;;;0.12;89.18;100351.64;118463;1156;65216;-78
2021/01/26 07:43:22;;;;;;;14.07;7.80;;;;;;;0.13;89.97;100366.36;118496;1155;65143;-78
2021/01/26 07:46:02;;;;;;;18.47;10.80;;;;;;;0.13;89.43;100375.00;118659;1155;65130;-78
2021/01/26 07:49:00;;;;;;;16.67;8.40;;;;;;;0.14;89.83;100388.88;118467;1155;65561;-77
2021/01/26 07:51:36;;;;;;;18.55;9.65;;;;;;;0.17;90.02;100394.70;118505;1156;65639;-77
2021/01/26 07:54:13;;;;;;;20.90;11.10;;;;;;;0.18;90.12;100398.95;118536;1156;65203;-80
2021/01/26 07:56:41;;;;;;;30.00;14.03;;;;;;;0.21;89.74;100405.71;118489;1157;65141;-78
2021/01/26 07:59:21;;;;;;;18.23;9.43;;;;;;;0.24;89.88;100415.11;118587;1155;65168;-78
2021/01/26 08:01:54;;;;;;;17.35;8.50;;;;;;;0.23;89.54;100416.04;118543;1156;65178;-78
2021/01/26 08:04:22;;;;;;;21.73;9.30;;;;;;;0.20;89.95;100420.54;118493;1155;65678;-78
2021/01/26 08:06:52;;;;;;;27.03;14.30;;;;;;;0.22;90.21;100417.82;118450;1155;65148;-78
2021/01/26 08:09:44;;;;;;;30.17;15.40;;;;;;;0.19;90.59;100424.11;118545;1155;65159;-78
2021/01/26 08:12:19;;;;;;;29.30;14.10;;;;;;;0.21;89.66;100423.97;118898;1155;65150;-79
2021/01/26 08:14:50;;;;;;;28.10;14.50;;;;;;;0.21;90.05;100431.80;118631;1155;65183;-78
2021/01/26 08:17:28;;;;;;;22.10;11.23;;;;;;;0.22;90.09;100437.87;118531;1156;66312;-78
2021/01/26 08:20:06;;;;;;;33.05;16.20;;;;;;;0.21;89.78;100437.02;118480;1155;65145;-77
2021/01/26 08:22:35;;;;;;;21.25;9.50;;;;;;;0.23;89.85;100429.08;118486;1155;65127;-80
2021/01/26 08:25:10;;;;;;;24.20;12.43;;;;;;;0.25;89.74;100443.67;118537;1155;65085;-78
2021/01/26 08:27:39;;;;;;;25.30;12.45;;;;;;;0.27;90.00;100444.38;118565;1157;65127;-78
2021/01/26 08:30:12;;;;;;;14.50;6.50;;;;;;;0.27;90.15;100443.56;118487;1157;65133;-78
2021/01/26 08:32:38;;;;;;;19.90;9.57;;;;;;;0.29;90.30;100445.10;118542;1157;65209;-79
2021/01/26 08:35:31;;;;;;;15.70;9.20;;;;;;;0.31;89.56;100447.61;118479;1156;65138;-78
2021/01/26 08:37:57;;;;;;;19.20;10.65;;;;;;;0.35;89.99;100452.47;118502;1157;66317;-77
2021/01/26 08:40:26;;;;;;;24.50;11.18;;;;;;;0.41;90.00;100459.02;118502;1157;65251;-77
2021/01/26 08:43:04;;;;;;;37.57;15.60;;;;;;;0.47;89.60;100468.14;118482;1155;65175;-78
2021/01/26 08:45:31;;;;;;;16.80;9.50;;;;;;;0.54;89.61;100474.59;118576;1157;65155;-78
2021/01/26 08:48:00;;;;;;;37.00;17.80;;;;;;;0.60;89.12;100482.78;118520;1155;65133;-77
2021/01/26 08:50:32;;;;;;;28.57;14.23;;;;;;;0.67;89.21;100493.59;118599;1157;65230;-78
2021/01/26 08:53:23;;;;;;;21.25;11.75;;;;;;;0.68;89.04;100492.66;118455;1156;65139;-78
2021/01/26 08:55:54;;;;;;;12.57;6.93;;;;;;;0.70;88.58;100501.20;118494;1155;65210;-78
2021/01/26 08:58:45;;;;;;;11.70;6.27;;;;;;;0.70;88.74;100509.04;118770;1155;65011;-78
2021/01/26 09:01:37;;;;;;;30.75;12.80;;;;;;;0.73;88.43;100515.80;118738;1155;65146;-78
2021/01/26 09:04:12;;;;;;;35.87;16.60;;;;;;;0.75;88.41;100529.57;118608;1155;65162;-77
2021/01/26 09:06:38;;;;;;;22.47;11.37;;;;;;;0.72;87.98;100535.86;118505;1156;65850;-79
2021/01/26 09:09:07;;;;;;;29.10;13.63;;;;;;;0.72;88.40;100541.09;118495;1156;65256;-78
2021/01/26 09:11:46;;;;;;;16.93;8.93;;;;;;;0.69;88.33;100545.69;118507;1156;66313;-77
2021/01/26 09:14:27;;;;;;;14.90;7.73;;;;;;;0.67;88.42;100553.63;118481;1155;65092;-78
2021/01/26 09:17:17;;;;;;;31.83;15.33;;;;;;;0.64;88.16;100558.23;118601;1155;65040;-76
2021/01/26 09:19:46;;;;;;;24.03;11.07;;;;;;;0.66;88.67;100556.34;118495;1156;65204;-78
2021/01/26 09:22:18;;;;;;;35.33;18.00;;;;;;;0.68;88.47;100563.14;118652;1157;65242;-78
2021/01/26 09:24:46;;;;;;;17.15;8.35;;;;;;;0.72;88.49;100561.11;118525;1156;65143;-78
2021/01/26 09:27:22;;;;;;;25.33;11.67;;;;;;;0.78;88.26;100565.87;118406;1155;65150;-81
2021/01/26 09:30:16;;;;;;;27.95;13.45;;;;;;;0.81;88.18;100561.27;118512;1157;65047;-77
2021/01/26 09:32:58;;;;;;;19.40;9.07;;;;;;;0.82;88.51;100567.31;118493;1156;65148;-77
2021/01/26 09:35:36;;;;;;;13.40;6.63;;;;;;;0.85;88.30;100576.70;118518;1156;65236;-77
2021/01/26 09:38:25;;;;;;;20.23;10.70;;;;;;;0.85;87.88;100587.14;118455;1155;65145;-77
2021/01/26 09:40:59;;;;;;;24.65;12.00;;;;;;;0.86;87.91;100594.05;118495;1155;65162;-78
2021/01/26 09:43:35;;;;;;;27.70;13.10;;;;;;;0.85;87.56;100587.14;118480;1155;65334;-78
2021/01/26 09:46:06;;;;;;;25.20;12.80;;;;;;;0.88;87.92;100589.54;118432;1155;65331;-78
2021/01/26 09:48:39;;;;;;;15.70;7.73;;;;;;;0.91;87.87;100591.91;118475;1155;65201;-77
2021/01/26 09:51:10;;;;;;;29.93;13.20;;;;;;;1.01;87.70;100598.11;118510;1156;66320;-77
2021/01/26 09:53:38;;;;;;;25.97;11.33;;;;;;;1.05;87.54;100602.16;118513;1156;65552;-77
2021/01/26 09:56:06;;;;;;;16.43;8.97;;;;;;;1.07;87.44;100600.26;118497;1155;65226;-77
2021/01/26 09:58:34;;;;;;;25.60;11.05;;;;;;;1.10;87.49;100615.69;118524;1155;65143;-78
2021/01/26 10:01:01;;;;;;;38.60;17.87;;;;;;;1.12;87.00;100619.02;118619;1157;65210;-76
2021/01/26 10:03:29;;;;;;;37.50;17.03;;;;;;;1.11;87.05;100619.98;118670;1157;65213;-78
2021/01/26 10:05:56;;;;;;;34.67;15.97;;;;;;;1.10;87.27;100628.75;118638;1156;65137;-79
2021/01/26 10:08:31;;;;;;;18.10;9.07;;;;;;;1.10;86.97;100628.75;118580;1156;65203;-78
2021/01/26 10:11:16;;;;;;;38.33;18.57;;;;;;;1.08;87.07;100625.42;118616;1157;65593;-79
2021/01/26 10:13:42;;;;;;;24.50;12.10;;;;;;;1.04;87.31;100641.45;118574;1157;65034;-78
2021/01/26 10:16:28;;;;;;;28.87;11.83;;;;;;;0.99;87.24;100641.80;118718;1157;65040;-80
2021/01/26 10:18:56;;;;;;;39.25;17.90;;;;;;;0.94;87.29;100642.14;118851;1156;65143;-79
2021/01/26 10:21:31;;;;;;;24.60;12.07;;;;;;;0.94;87.65;100649.16;118622;1156;65536;-79
2021/01/26 10:24:22;;;;;;;21.50;11.17;;;;;;;0.91;87.60;100660.64;118591;1157;65146;-78
2021/01/26 10:26:49;;;;;;;32.47;16.10;;;;;;;0.91;87.35;100646.75;118672;1157;65166;-77
2021/01/26 10:29:23;;;;;;;32.40;16.50;;;;;;;0.90;87.41;100658.16;118664;1156;65166;-79
2021/01/26 10:31:57;;;;;;;21.23;10.23;;;;;;;0.87;88.17;100656.61;118771;1157;65308;-84
2021/01/26 10:34:30;;;;;;;44.93;18.90;;;;;;;0.90;88.23;100663.38;118718;1157;65136;-80
2021/01/26 10:37:23;;;;;;;24.93;11.10;;;;;;;0.90;87.92;100665.99;118806;1157;65169;-80
2021/01/26 10:40:32;;;;;;;28.40;13.77;;;;;;;0.88;87.44;100665.27;118878;1157;65227;-80
2021/01/26 10:43:01;;;;;;;33.25;13.50;;;;;;;0.91;88.15;100660.64;118971;1157;65229;-80
2021/01/26 10:45:38;;;;;;;30.93;14.53;;;;;;;0.94;87.79;100668.26;119040;1157;65543;-80
2021/01/26 10:48:21;;;;;;;39.90;18.00;;;;;;;0.99;87.59;100680.98;118944;1156;66197;-80
2021/01/26 10:50:47;;;;;;;27.87;10.23;;;;;;;0.99;87.50;100673.97;118821;1155;65098;-79
2021/01/26 10:53:50;;;;;;;36.80;18.00;;;;;;;0.99;87.70;100683.59;118851;1157;65236;-80
2021/01/26 10:56:17;;;;;;;22.60;9.87;;;;;;;1.03;87.66;100690.25;118813;1156;65054;-79
2021/01/26 10:58:45;;;;;;;39.07;19.53;;;;;;;1.05;87.46;100685.75;118888;1156;65210;-80
2021/01/26 11:01:16;;;;;;;36.07;15.33;;;;;;;1.10;87.37;100688.84;118945;1157;65146;-80
2021/01/26 11:03:43;;;;;;;30.00;13.07;;;;;;;1.13;87.46;100686.02;118822;1156;65143;-81
2021/01/26 11:06:09;;;;;;;37.37;18.37;;;;;;;1.11;87.03;100687.91;118791;1157;65183;-77
2021/01/26 11:08:36;;;;;;;17.20;8.97;;;;;;;1.07;87.26;100696.92;118528;1156;65085;-79
2021/01/26 11:11:03;;;;;;;29.83;13.27;;;;;;;1.12;87.38;100705.23;118539;1157;65121;-77
2021/01/26 11:13:29;;;;;;;38.10;16.50;;;;;;;1.12;87.18;100709.64;118757;1157;65053;-78
2021/01/26 11:15:56;;;;;;;33.67;15.87;;;;;;;1.11;87.21;100708.81;119313;1156;65053;-79
2021/01/26 11:18:24;;;;;;;33.33;15.60;;;;;;;1.09;87.11;100721.16;118692;1157;65278;-78
2021/01/26 11:20:50;;;;;;;36.35;17.50;;;;;;;1.07;87.77;100702.14;118698;1157;65194;-78
2021/01/26 11:23:17;;;;;;;36.27;16.27;;;;;;;1.06;87.48;100710.91;118741;1157;65065;-77
2021/01/26 11:25:44;;;;;;;30.80;15.17;;;;;;;1.08;87.52;100708.20;118548;1155;65114;-76
2021/01/26 11:28:10;;;;;;;46.80;20.30;;;;;;;1.09;87.36;100715.93;118677;1157;66985;-79
2021/01/26 11:30:37;;;;;;;38.07;15.47;;;;;;;1.14;87.12;100715.58;118441;1157;66285;-78
2021/01/26 11:33:04;;;;;;;40.20;16.97;;;;;;;1.17;87.20;100725.80;118566;1156;65211;-78
2021/01/26 11:35:32;;;;;;;45.97;16.83;;;;;;;1.19;87.15;100724.76;118370;1157;66301;-79
2021/01/26 11:37:59;;;;;;;33.25;14.65;;;;;;;1.19;86.88;100722.14;118866;1155;65137;-78
2021/01/26 11:40:26;;;;;;;36.07;15.67;;;;;;;1.19;86.87;100729.98;118732;1157;65140;-78
2021/01/26 11:42:53;;;;;;;28.40;12.07;;;;;;;1.24;87.08;100739.27;118846;1157;65178;-79
2021/01/26 11:45:24;;;;;;;31.27;14.00;;;;;;;1.24;86.96;100739.27;118788;1156;65146;-78
2021/01/26 11:47:51;;;;;;;35.30;17.07;;;;;;;1.24;86.70;100745.31;119220;1157;65198;-79